E.r.brandenburg — A8SZ5 — position and weather

sailwx.info

Track history (hours):
 
Tides and Currents Weather Stations Pressure Air Temp Water Temp Dewpoint Dewpoint Depression Visibility Wind Speed Wind Dir Waves Ship Positions

E.r.brandenburg

Last reported at 2016-May-20 16:33 UTC. Time now 2016-May-26 18:21 UTC.
Position N 36°08' E 123°54'.

Length 292 m; draft 10.7 m.

Type: Cargo ship. MMSI: 636091798.

Date/timePositionNaut miles runAvg speedWind from/ knotsBaromVisibWave heightAir tempDewpointWater temp
2016-May-20 16:33N 36°08' E 123°54'10 9.5
2016-May-20 15:32N 36°17' E 123°55'10 9.8
2016-May-20 14:31N 36°27' E 123°53'910.0
2016-May-20 13:34N 36°36' E 123°49'1010.1
2016-May-20 12:33N 36°46' E 123°44'1110.0
2016-May-20 11:26N 36°56' E 123°39'22 9.3
2016-May-20 09:04N 37°17' E 123°29'5 8.9
2016-May-20 08:33N 37°21' E 123°28'9 9.1
2016-May-20 07:31N 37°30' E 123°23'9 9.6
2016-May-20 06:32N 37°38' E 123°19'2010.2
2016-May-20 04:33N 37°50' E 122°58'1110.8
2016-May-20 03:30N 37°55' E 122°45'5312.9
2016-May-19 23:20N 38°15' E 121°42'8 9.9
2016-May-19 22:32N 38°18' E 121°33'1010.2
2016-May-19 21:33N 38°22' E 121°21'1110.6
2016-May-19 20:33N 38°26' E 121°09'1111.2
2016-May-19 19:33N 38°31' E 120°56'  
2016-May-14 10:33N 38°09' E 120°14'1313.0
2016-May-14 09:33N 38°04' E 120°30'1313.5
2016-May-14 08:33N 38°01' E 120°46'1313.0
2016-May-14 07:33N 37°59' E 121°03'1110.7
2016-May-14 06:33N 37°52' E 121°13'10 9.8
2016-May-14 05:32N 37°44' E 121°07'0 0.3
2016-May-14 04:22N 37°43' E 121°07'0 0.0
2016-May-14 03:31N 37°43' E 121°07'0 0.0
2016-May-14 02:16N 37°43' E 121°07'0 0.1
2016-May-14 01:28N 37°43' E 121°07'0 0.0
2016-May-14 00:31N 37°43' E 121°07'0 0.0
2016-May-13 23:28N 37°43' E 121°07'0 0.1
2016-May-13 22:31N 37°43' E 121°07'0 0.0
2016-May-13 21:28N 37°43' E 121°07'0 0.0
2016-May-13 20:31N 37°43' E 121°07'0 0.0
2016-May-13 19:25N 37°43' E 121°07'0 0.0
2016-May-13 18:28N 37°43' E 121°07'0 0.0
2016-May-13 17:31N 37°43' E 121°07'0 0.0
2016-May-13 16:31N 37°43' E 121°07'0 0.0
2016-May-13 15:25N 37°43' E 121°07'0 0.0
2016-May-13 14:31N 37°43' E 121°07'0 0.0
2016-May-13 13:28N 37°43' E 121°07'0 0.0
2016-May-13 12:31N 37°43' E 121°07'0 0.0
2016-May-13 11:28N 37°43' E 121°07'0 0.0
2016-May-13 10:28N 37°43' E 121°07'0 0.0
2016-May-13 09:28N 37°43' E 121°07'1 1.1
2016-May-13 08:33N 37°44' E 121°08'7 7.3
2016-May-13 07:33N 37°51' E 121°11'8 8.1
2016-May-13 06:33N 37°57' E 121°18'2010.2
2016-May-13 04:32N 37°54' E 121°44'1111.4
2016-May-13 03:33N 37°52' E 121°58'1211.5
2016-May-13 02:31N 37°50' E 122°12'2311.5
2016-May-13 00:33N 37°45' E 122°40'1211.1
2016-May-12 23:27N 37°41' E 122°55'1011.0
2016-May-12 22:33N 37°36' E 123°06'1110.8
2016-May-12 21:32N 37°30' E 123°17'1010.5
2016-May-12 20:33N 37°24' E 123°28'  
Track history (hours):
 
Tides and Currents Weather Stations Pressure Air Temp Water Temp Dewpoint Dewpoint Depression Visibility Wind Speed Wind Dir Waves Ship Positions

E.r.brandenburg

Last reported at 2016-May-20 16:33 UTC. Time now 2016-May-26 18:21 UTC.
Position N 36°08' E 123°54'.

Length 292 m; draft 10.7 m.

Type: Cargo ship. MMSI: 636091798.

Date/timePositionNaut miles runAvg speedWind from/ knotsBaromVisibWave heightAir tempDewpointWater temp
2016-May-20 16:33N 36°08' E 123°54'10 9.5
2016-May-20 15:32N 36°17' E 123°55'10 9.8
2016-May-20 14:31N 36°27' E 123°53'910.0
2016-May-20 13:34N 36°36' E 123°49'1010.1
2016-May-20 12:33N 36°46' E 123°44'1110.0
2016-May-20 11:26N 36°56' E 123°39'22 9.3
2016-May-20 09:04N 37°17' E 123°29'5 8.9
2016-May-20 08:33N 37°21' E 123°28'9 9.1
2016-May-20 07:31N 37°30' E 123°23'9 9.6
2016-May-20 06:32N 37°38' E 123°19'2010.2
2016-May-20 04:33N 37°50' E 122°58'1110.8
2016-May-20 03:30N 37°55' E 122°45'5312.9
2016-May-19 23:20N 38°15' E 121°42'8 9.9
2016-May-19 22:32N 38°18' E 121°33'1010.2
2016-May-19 21:33N 38°22' E 121°21'1110.6
2016-May-19 20:33N 38°26' E 121°09'1111.2
2016-May-19 19:33N 38°31' E 120°56'  
2016-May-14 10:33N 38°09' E 120°14'1313.0
2016-May-14 09:33N 38°04' E 120°30'1313.5
2016-May-14 08:33N 38°01' E 120°46'1313.0
2016-May-14 07:33N 37°59' E 121°03'1110.7
2016-May-14 06:33N 37°52' E 121°13'10 9.8
2016-May-14 05:32N 37°44' E 121°07'0 0.3
2016-May-14 04:22N 37°43' E 121°07'0 0.0
2016-May-14 03:31N 37°43' E 121°07'0 0.0
2016-May-14 02:16N 37°43' E 121°07'0 0.1
2016-May-14 01:28N 37°43' E 121°07'0 0.0
2016-May-14 00:31N 37°43' E 121°07'0 0.0
2016-May-13 23:28N 37°43' E 121°07'0 0.1
2016-May-13 22:31N 37°43' E 121°07'0 0.0
2016-May-13 21:28N 37°43' E 121°07'0 0.0
2016-May-13 20:31N 37°43' E 121°07'0 0.0
2016-May-13 19:25N 37°43' E 121°07'0 0.0
2016-May-13 18:28N 37°43' E 121°07'0 0.0
2016-May-13 17:31N 37°43' E 121°07'0 0.0
2016-May-13 16:31N 37°43' E 121°07'0 0.0
2016-May-13 15:25N 37°43' E 121°07'0 0.0
2016-May-13 14:31N 37°43' E 121°07'0 0.0
2016-May-13 13:28N 37°43' E 121°07'0 0.0
2016-May-13 12:31N 37°43' E 121°07'0 0.0
2016-May-13 11:28N 37°43' E 121°07'0 0.0
2016-May-13 10:28N 37°43' E 121°07'0 0.0
2016-May-13 09:28N 37°43' E 121°07'1 1.1
2016-May-13 08:33N 37°44' E 121°08'7 7.3
2016-May-13 07:33N 37°51' E 121°11'8 8.1
2016-May-13 06:33N 37°57' E 121°18'2010.2
2016-May-13 04:32N 37°54' E 121°44'1111.4
2016-May-13 03:33N 37°52' E 121°58'1211.5
2016-May-13 02:31N 37°50' E 122°12'2311.5
2016-May-13 00:33N 37°45' E 122°40'1211.1
2016-May-12 23:27N 37°41' E 122°55'1011.0
2016-May-12 22:33N 37°36' E 123°06'1110.8
2016-May-12 21:32N 37°30' E 123°17'1010.5
2016-May-12 20:33N 37°24' E 123°28'  

Dump ship's entire track history